West Palm Beach, FL (33406)

7:12 PM EDT on May 29, 2015 (GMT -0400)
LCS Police HQ / EOC | | Change Station
CLOSE
Current Station
Personal Weather Station
Location: Lake Clarke Shores, FL
Elevation: 30 ft
Nearby Weather Stations

Elev 30 ft 26.65 °N, 80.08 °W | Updated 7 seconds ago

Mostly Cloudy
Mostly Cloudy
80.4 °F
Feels Like 83 °F
N
7.8
Wind Variable Wind from SE
Gusts 10.3 mph

Today
High -- | Low -- °F
--% Chance of Precip.
Yesterday
High -- | Low -- °F
Precip. -- in
6:27 AM 8:07 PM
Waxing Gibbous, 86% visible
Pressure 30.06 in
Visibility 10.0 miles
Clouds Scattered Clouds 2700 ft
Mostly Cloudy 10000 ft
Mostly Cloudy 25000 ft
Heat Index 83 °F
Dew Point 68 °F
Humidity 67%
Rainfall 0.00 in
Snow Depth Not available.
UV 1 out of 12
Pollen 4.20 out of 12
Air Quality Not available.
Flu Activity Sporadic
METAR KPBI 292253Z 08013KT 10SM SCT027 BKN100 BKN250 28/21 A3006 RMK AO2 SLP177 T02780211 $

More Conditions Fewer Conditions

Pressure 30.06 in
Visibility 10.0 miles
Clouds Scattered Clouds 2700 ft
Mostly Cloudy 10000 ft
Mostly Cloudy 25000 ft
Heat Index 83 °F
Dew Point 68 °F
Humidity 67%
Rainfall 0.00 in
Snow Depth Not available.
UV 1 out of 12
Pollen 4.20 out of 12
Air Quality Not available.
Flu Activity Sporadic
METAR KPBI 292253Z 08013KT 10SM SCT027 BKN100 BKN250 28/21 A3006 RMK AO2 SLP177 T02780211 $

More Conditions Fewer Conditions

10-Day Weather Forecast

Almanac

Astronomy

May. 29, 2015 Rise Set
Actual Time
Civil Twilight
Nautical Twilight
Astronomical Twilight
Moon
Length of Visible Light
Length of Day
Tomorrow will be .
, % of the Moon is Illuminated

Today's Extremes

State Highs State Lows

Community

WunderPhotos

Upload Photos

1,825,397 photos uploaded!

WunderBlogs® & News

Nearby

Air Quality

  Air Quality AQ Index Pollutant
Not available.

Snow Depth

Station Depth Elevation

Earthquake Activity

City Distance Mag. Time & Date
Minimum magnitude displayed is 2.5.

Coastal Water Temperatures

Place Temperature

Stations

Nearby Weather Stations

Station Location Temp. Windchill Dew Point Humidity Wind Precip. Elev Updated Type